createdAt,value
2022-08-21T00:00:14.622Z,98466.19
2022-08-21T00:05:41.220Z,98469.38
2022-08-21T00:10:45.629Z,98464.02
2022-08-21T00:15:49.939Z,98459.14
2022-08-21T00:20:53.563Z,98445.30
2022-08-21T00:25:56.517Z,98448.36
2022-08-21T00:30:59.782Z,98450.71
2022-08-21T00:36:03.509Z,98446.79
2022-08-21T00:41:32.229Z,98441.89
2022-08-21T00:46:32.881Z,98433.44
2022-08-21T00:51:51.242Z,98429.95
2022-08-21T00:57:00.780Z,98418.77
2022-08-21T01:02:06.452Z,98418.09
2022-08-21T01:07:10.009Z,98414.62
2022-08-21T01:12:13.835Z,98410.59
2022-08-21T01:17:18.806Z,98411.40
2022-08-21T01:22:21.673Z,98412.06
2022-08-21T01:27:24.548Z,98414.99
2022-08-21T01:32:27.744Z,98407.86
2022-08-21T01:37:30.817Z,98405.96
2022-08-21T01:42:35.024Z,98398.23
2022-08-21T01:47:38.675Z,98386.43
2022-08-21T01:52:41.705Z,98378.55
2022-08-21T01:57:46.113Z,98374.54
2022-08-21T02:02:49.000Z,98368.86
2022-08-21T02:07:54.118Z,98374.00
2022-08-21T02:12:58.044Z,98377.10
2022-08-21T02:18:03.058Z,98371.58
2022-08-21T02:23:07.403Z,98368.91
2022-08-21T02:28:13.681Z,98367.01
2022-08-21T02:33:17.152Z,98358.91
2022-08-21T02:38:23.784Z,98348.82
2022-08-21T02:43:28.309Z,98346.41
2022-08-21T02:48:33.080Z,98341.44
2022-08-21T02:53:36.852Z,98340.14
2022-08-21T02:58:46.483Z,98339.77
2022-08-21T03:03:52.199Z,98343.50
2022-08-21T03:08:55.327Z,98343.85
2022-08-21T03:13:58.201Z,98346.58
2022-08-21T03:19:01.043Z,98351.33
2022-08-21T03:24:05.341Z,98361.70
2022-08-21T03:29:09.852Z,98370.51
2022-08-21T03:34:12.781Z,98365.85
2022-08-21T03:39:17.706Z,98363.84
2022-08-21T03:44:20.837Z,98370.84
2022-08-21T03:49:23.857Z,98374.64
2022-08-21T03:54:28.829Z,98375.41
2022-08-21T03:59:31.909Z,98376.15
2022-08-21T04:04:35.318Z,98379.50
2022-08-21T04:09:38.592Z,98377.86
2022-08-21T04:14:42.898Z,98385.15
2022-08-21T04:19:49.317Z,98384.80
2022-08-21T04:24:54.584Z,98389.62
2022-08-21T04:29:57.652Z,98396.02
2022-08-21T04:35:02.470Z,98397.81
2022-08-21T04:40:06.656Z,98393.66
2022-08-21T04:45:10.826Z,98399.83
2022-08-21T04:50:13.726Z,98400.54
2022-08-21T04:55:20.187Z,98398.95
2022-08-21T05:00:25.567Z,98397.79
2022-08-21T05:05:30.375Z,98401.42
2022-08-21T05:10:33.749Z,98405.38
2022-08-21T05:15:36.604Z,98407.64
2022-08-21T05:20:39.660Z,98409.65
2022-08-21T05:25:42.757Z,98409.79
2022-08-21T05:30:46.092Z,98413.15
2022-08-21T05:35:53.011Z,98413.52
2022-08-21T05:40:56.291Z,98415.95
2022-08-21T05:45:59.486Z,98414.59
2022-08-21T05:51:07.852Z,98414.91
2022-08-21T05:56:12.356Z,98413.04
2022-08-21T06:01:16.937Z,98409.44
2022-08-21T06:06:20.046Z,98411.23
2022-08-21T06:11:26.995Z,98411.04
2022-08-21T06:16:31.879Z,98411.04
2022-08-21T06:21:34.808Z,98412.96
2022-08-21T06:26:38.132Z,98412.75
2022-08-21T06:31:41.969Z,98405.44
2022-08-21T06:36:45.376Z,98410.02
2022-08-21T06:41:48.805Z,98412.17
2022-08-21T06:46:51.712Z,98413.45
2022-08-21T06:51:55.132Z,98418.14
2022-08-21T06:56:58.140Z,98422.37
2022-08-21T07:02:01.686Z,98427.58
2022-08-21T07:07:04.714Z,98428.67
2022-08-21T07:12:08.170Z,98435.79
2022-08-21T07:17:11.150Z,98430.75
2022-08-21T07:22:19.224Z,98431.78
2022-08-21T07:27:22.498Z,98432.90
2022-08-21T07:32:25.793Z,98437.23
2022-08-21T07:37:28.760Z,98434.05
2022-08-21T07:42:33.125Z,98438.27
2022-08-21T07:47:42.571Z,98435.44
2022-08-21T07:52:46.807Z,98437.23
2022-08-21T07:57:50.418Z,98432.30
2022-08-21T08:02:55.193Z,98431.54
2022-08-21T08:07:58.262Z,98428.13
2022-08-21T08:13:01.624Z,98426.88
2022-08-21T08:18:05.217Z,98427.62
2022-08-21T08:23:11.677Z,98425.00
2022-08-21T08:28:17.154Z,98423.77
2022-08-21T08:33:21.049Z,98426.85
2022-08-21T08:38:26.294Z,98423.88
2022-08-21T08:43:31.165Z,98427.64
2022-08-21T08:48:36.855Z,98427.15
2022-08-21T08:54:03.972Z,98425.38
2022-08-21T08:59:27.701Z,98426.38
2022-08-21T09:04:31.471Z,98417.92
2022-08-21T09:09:52.693Z,98411.88
2022-08-21T09:15:13.567Z,98409.94
2022-08-21T09:20:45.364Z,98406.91
2022-08-21T09:26:05.520Z,98399.34
2022-08-21T09:31:17.057Z,98392.18
2022-08-21T09:36:42.196Z,98388.61
2022-08-21T09:41:45.164Z,98379.95
2022-08-21T09:46:53.625Z,98377.40
2022-08-21T09:51:59.652Z,98374.91
2022-08-21T09:57:36.161Z,98371.55
2022-08-21T10:02:39.405Z,98369.90
2022-08-21T10:07:42.530Z,98369.66
2022-08-21T10:12:59.016Z,98368.21
2022-08-21T10:18:21.312Z,98366.18
2022-08-21T10:23:42.633Z,98365.94
2022-08-21T10:29:12.612Z,98369.02
2022-08-21T10:34:53.382Z,98364.77
2022-08-21T10:40:32.892Z,98366.66
2022-08-21T10:46:11.369Z,98365.37
2022-08-21T10:51:33.588Z,98363.64
2022-08-21T10:56:41.616Z,98362.95
2022-08-21T11:02:26.732Z,98365.73
2022-08-21T11:07:45.035Z,98364.55
2022-08-21T11:12:54.882Z,98359.71
2022-08-21T11:18:27.482Z,98355.72
2022-08-21T11:23:39.635Z,98358.95
2022-08-21T11:29:02.178Z,98362.60
2022-08-21T11:34:13.883Z,98357.66
2022-08-21T11:39:26.548Z,98364.23
2022-08-21T11:44:51.819Z,98370.06
2022-08-21T11:50:20.603Z,98365.78
2022-08-21T11:55:58.855Z,98367.97
2022-08-21T12:01:31.962Z,98369.93
2022-08-21T12:06:41.881Z,98368.88
2022-08-21T12:11:49.201Z,98373.38
2022-08-21T12:16:52.970Z,98372.46
2022-08-21T12:21:58.512Z,98374.80
2022-08-21T12:27:29.585Z,98365.83
2022-08-21T12:32:47.642Z,98361.95
2022-08-21T12:37:53.583Z,98352.39
2022-08-21T12:43:00.515Z,98363.65
2022-08-21T12:48:25.018Z,98372.98
2022-08-21T12:53:37.208Z,98367.70
2022-08-21T12:58:47.452Z,98359.22
2022-08-21T13:04:00.255Z,98351.95
2022-08-21T13:09:13.905Z,98354.73
2022-08-21T13:14:30.221Z,98363.46
2022-08-21T13:19:35.241Z,98366.47
2022-08-21T13:24:42.956Z,98362.77
2022-08-21T13:29:53.248Z,98368.31
2022-08-21T13:34:59.807Z,98374.89
2022-08-21T13:40:03.120Z,98382.23
2022-08-21T13:45:15.012Z,98381.29
2022-08-21T13:50:21.908Z,98384.96
2022-08-21T13:55:26.086Z,98398.10
2022-08-21T14:00:31.464Z,98398.08
2022-08-21T14:05:38.979Z,98397.00
2022-08-21T14:10:48.605Z,98396.61
2022-08-21T14:16:02.351Z,98392.31
2022-08-21T14:21:10.261Z,98380.83
2022-08-21T14:26:13.289Z,98373.13
2022-08-21T14:31:19.751Z,98385.07
2022-08-21T14:36:23.523Z,98395.28
2022-08-21T14:41:29.106Z,98397.41
2022-08-21T14:46:33.190Z,98397.81
2022-08-21T14:51:36.604Z,98402.30
2022-08-21T14:56:47.643Z,98402.20
2022-08-21T15:01:51.023Z,98401.49
2022-08-21T15:06:54.406Z,98400.13
2022-08-21T15:12:01.383Z,98409.73
2022-08-21T15:17:06.772Z,98410.65
2022-08-21T15:22:15.505Z,98411.09
2022-08-21T15:27:22.121Z,98411.02
2022-08-21T15:32:29.941Z,98425.35
2022-08-21T15:37:33.455Z,98433.57
2022-08-21T15:42:36.716Z,98437.71
2022-08-21T15:47:44.226Z,98442.83
2022-08-21T15:52:47.554Z,98454.52
2022-08-21T15:57:57.247Z,98461.63
2022-08-21T16:03:05.430Z,98466.24
2022-08-21T16:08:08.377Z,98466.59
2022-08-21T16:13:21.313Z,98461.80
2022-08-21T16:18:24.529Z,98435.85
2022-08-21T16:23:27.665Z,98420.84
2022-08-21T16:28:32.428Z,98440.01
2022-08-21T16:33:39.020Z,98460.39
2022-08-21T16:38:44.324Z,98479.49
2022-08-21T16:43:49.108Z,98487.86
2022-08-21T16:48:52.053Z,98488.02
2022-08-21T16:53:54.986Z,98474.36
2022-08-21T16:58:59.251Z,98464.21
2022-08-21T17:04:02.326Z,98453.92
2022-08-21T17:09:05.515Z,98469.83
2022-08-21T17:14:12.499Z,98468.07
2022-08-21T17:19:16.462Z,98462.11
2022-08-21T17:24:19.440Z,98450.54
2022-08-21T17:29:27.255Z,98462.96
2022-08-21T17:34:31.157Z,98477.77
2022-08-21T17:39:36.157Z,98488.16
2022-08-21T17:44:44.719Z,98491.09
2022-08-21T17:49:47.913Z,98498.54
2022-08-21T17:54:50.950Z,98509.91
2022-08-21T17:59:58.343Z,98507.36
2022-08-21T18:05:02.664Z,98516.88
2022-08-21T18:10:08.739Z,98518.69
2022-08-21T18:15:17.947Z,98519.10
2022-08-21T18:20:23.126Z,98514.77
2022-08-21T18:25:26.401Z,98515.80
2022-08-21T18:30:29.355Z,98519.78
2022-08-21T18:35:32.548Z,98527.95
2022-08-21T18:40:39.021Z,98525.20
2022-08-21T18:45:42.418Z,98529.65
2022-08-21T18:50:47.896Z,98533.20
2022-08-21T18:55:51.456Z,98538.89
2022-08-21T19:00:55.670Z,98533.70
2022-08-21T19:05:58.612Z,98533.06
2022-08-21T19:11:02.885Z,98536.00
2022-08-21T19:16:09.601Z,98541.24
2022-08-21T19:21:12.632Z,98540.15
2022-08-21T19:26:16.773Z,98536.31
2022-08-21T19:31:41.738Z,98526.84
2022-08-21T19:36:45.363Z,98526.88
2022-08-21T19:41:52.961Z,98529.63
2022-08-21T19:46:58.505Z,98530.00
2022-08-21T19:52:02.452Z,98537.07
2022-08-21T19:57:18.989Z,98540.88
2022-08-21T20:02:21.961Z,98532.33
2022-08-21T20:07:26.303Z,98524.41
2022-08-21T20:12:30.424Z,98520.05
2022-08-21T20:17:33.341Z,98514.90
2022-08-21T20:22:36.723Z,98517.33
2022-08-21T20:27:41.558Z,98515.46
2022-08-21T20:32:44.390Z,98518.34
2022-08-21T20:37:47.558Z,98516.41
2022-08-21T20:43:03.944Z,98516.58
2022-08-21T20:48:23.579Z,98519.55
2022-08-21T20:59:10.791Z,98505.73
2022-08-21T21:04:54.231Z,98503.92
2022-08-21T21:09:58.904Z,98507.33
2022-08-21T21:21:03.717Z,98505.64
2022-08-21T21:26:48.927Z,98505.16
2022-08-21T21:31:54.301Z,98506.48
2022-08-21T21:37:05.751Z,98503.65
2022-08-21T21:42:30.147Z,98503.51
2022-08-21T21:47:43.875Z,98501.38
2022-08-21T21:53:12.668Z,98498.77
2022-08-21T21:58:40.201Z,98496.79
2022-08-21T22:03:57.460Z,98493.71
2022-08-21T22:09:18.349Z,98494.77
2022-08-21T22:14:22.698Z,98496.08
2022-08-21T22:19:34.930Z,98496.42
2022-08-21T22:24:42.843Z,98491.33
2022-08-21T22:29:51.267Z,98495.04
2022-08-21T22:35:09.590Z,98493.58
2022-08-21T22:40:20.294Z,98491.69
2022-08-21T22:45:23.306Z,98492.38
2022-08-21T22:50:27.041Z,98496.81
2022-08-21T22:55:44.034Z,98498.84
2022-08-21T23:01:22.631Z,98499.27
2022-08-21T23:06:34.892Z,98497.10
2022-08-21T23:11:40.758Z,98493.00
2022-08-21T23:17:16.111Z,98492.63
2022-08-21T23:22:21.808Z,98497.29
2022-08-21T23:27:48.564Z,98498.11
2022-08-21T23:33:21.919Z,98493.65
2022-08-21T23:38:43.701Z,98488.55
2022-08-21T23:44:24.710Z,98491.25
2022-08-21T23:49:48.539Z,98491.05
2022-08-21T23:54:55.621Z,98488.34
